Terminal Aerodrome Forecast
Issued by NWS Newport/Morehead City, NC

Home | Current Version | Previous Version | Text Only | Print | Product List | Glossary On
Versions: 1 2 3 4 5 6 7 8 9 10 11 12 13 14 15 16
000
FTUS42 KMHX 271027 AAB
TAFEWN
TAF AMD
KEWN 271027Z 2710/2806 VRB04KT P6SM SCT030 BKN100
      TEMPO 2710/2712 3SM BR BKN003
     FM271400 19012KT P6SM VCTS SCT030 BKN050CB
     FM271800 19012G20KT P6SM VCTS BKN035CB
     FM280000 21010KT P6SM VCTS BKN030CB=

USA.gov is the U.S. government's official web portal to all federal, state and local government web resources and services.